Time;durP1;ratioP1;P1;durP2;ratioP2;P2;SDS_P1;SDS_P2;PMS_P1;PMS_P2;Temp;Humidity;BMP_temperature;BMP_pressure;BME280_temperature;BME280_humidity;BME280_pressure;Samples;Min_cycle;Max_cycle;Signal;HPM_P1;HPM_P2
2023/12/16 00:00:08;;;;;;;0.00;0.00;;;;;;;;;;1737751;28;20780;-64
2023/12/16 00:01:00;;;;;;;0.00;0.00;;;;;;;;;;1735954;28;20231;-63
2023/12/16 00:01:51;;;;;;;0.00;0.00;;;;;;;;;;1738426;28;20210;-65
2023/12/16 00:02:44;;;;;;;0.00;0.00;;;;;;;;;;1737432;28;20586;-65
2023/12/16 00:03:35;;;;;;;0.10;0.10;;;;;;;;;;1739391;28;20253;-64
2023/12/16 00:04:26;;;;;;;0.00;0.00;;;;;;;;;;1738637;28;20218;-64
2023/12/16 00:05:18;;;;;;;0.00;0.00;;;;;;;;;;1739441;28;20203;-65
2023/12/16 00:06:09;;;;;;;0.00;0.00;;;;;;;;;;1737869;28;20289;-65
2023/12/16 00:07:01;;;;;;;0.00;0.00;;;;;;;;;;1739038;28;20264;-63
2023/12/16 00:07:52;;;;;;;0.00;0.00;;;;;;;;;;1739053;28;20570;-65
2023/12/16 00:08:44;;;;;;;0.10;0.10;;;;;;;;;;1739077;28;20264;-65
2023/12/16 00:09:36;;;;;;;0.00;0.00;;;;;;;;;;1738754;28;20259;-64
2023/12/16 00:10:27;;;;;;;0.00;0.00;;;;;;;;;;1737502;28;20298;-64
2023/12/16 00:11:19;;;;;;;0.00;0.00;;;;;;;;;;1738816;28;20229;-65
2023/12/16 00:12:10;;;;;;;0.00;0.00;;;;;;;;;;1739384;28;20742;-65
2023/12/16 00:13:02;;;;;;;0.05;0.05;;;;;;;;;;1738845;28;20649;-65
2023/12/16 00:13:54;;;;;;;0.00;0.00;;;;;;;;;;1739538;28;20203;-65
2023/12/16 00:14:45;;;;;;;0.00;0.00;;;;;;;;;;1738849;28;20578;-65
2023/12/16 00:15:37;;;;;;;0.00;0.00;;;;;;;;;;1737787;28;20357;-65
2023/12/16 00:16:28;;;;;;;0.00;0.00;;;;;;;;;;1738896;28;20215;-65
2023/12/16 00:17:22;;;;;;;0.00;0.00;;;;;;;;;;1738782;28;20207;-65
2023/12/16 00:18:13;;;;;;;0.00;0.00;;;;;;;;;;1738610;28;20260;-65
2023/12/16 00:19:05;;;;;;;0.00;0.00;;;;;;;;;;1739133;28;20659;-65
2023/12/16 00:19:57;;;;;;;0.00;0.00;;;;;;;;;;1737781;28;20506;-65
2023/12/16 00:20:48;;;;;;;0.00;0.00;;;;;;;;;;1737939;28;20317;-64
2023/12/16 00:21:39;;;;;;;0.00;0.00;;;;;;;;;;1738618;28;20585;-65
2023/12/16 00:22:31;;;;;;;0.00;0.00;;;;;;;;;;1739251;28;20654;-65
2023/12/16 00:23:22;;;;;;;0.00;0.00;;;;;;;;;;1738605;28;20289;-65
2023/12/16 00:24:15;;;;;;;0.00;0.00;;;;;;;;;;1739282;28;20737;-65
2023/12/16 00:25:08;;;;;;;0.00;0.00;;;;;;;;;;1738459;28;20570;-66
2023/12/16 00:25:59;;;;;;;0.00;0.00;;;;;;;;;;1735234;28;20234;-65
2023/12/16 00:26:50;;;;;;;0.00;0.00;;;;;;;;;;1738641;28;20770;-65
2023/12/16 00:27:41;;;;;;;0.00;0.00;;;;;;;;;;1738592;28;20585;-65
2023/12/16 00:28:33;;;;;;;0.00;0.00;;;;;;;;;;1739085;28;20211;-64
2023/12/16 00:29:25;;;;;;;0.00;0.00;;;;;;;;;;1738776;28;20207;-64
2023/12/16 00:30:16;;;;;;;0.00;0.00;;;;;;;;;;1738266;28;20210;-65
2023/12/16 00:31:08;;;;;;;0.03;0.03;;;;;;;;;;1738295;28;20724;-64
2023/12/16 00:31:59;;;;;;;0.00;0.00;;;;;;;;;;1737919;28;20260;-65
2023/12/16 00:32:51;;;;;;;0.00;0.00;;;;;;;;;;1738459;28;20198;-64
2023/12/16 00:33:42;;;;;;;0.00;0.00;;;;;;;;;;1739125;28;20662;-65
2023/12/16 00:34:34;;;;;;;0.00;0.00;;;;;;;;;;1738577;28;20563;-65
2023/12/16 00:35:26;;;;;;;0.00;0.00;;;;;;;;;;1733482;28;20231;-64
2023/12/16 00:36:17;;;;;;;0.00;0.00;;;;;;;;;;1738612;28;20318;-64
2023/12/16 00:37:09;;;;;;;0.10;0.10;;;;;;;;;;1737634;28;20210;-64
2023/12/16 00:38:00;;;;;;;0.00;0.00;;;;;;;;;;1736598;28;20235;-65
2023/12/16 00:38:51;;;;;;;0.00;0.00;;;;;;;;;;1739011;28;20268;-65
2023/12/16 00:39:44;;;;;;;0.00;0.00;;;;;;;;;;1737151;28;20211;-65
2023/12/16 00:40:35;;;;;;;0.00;0.00;;;;;;;;;;1737691;28;20276;-65
2023/12/16 00:41:26;;;;;;;0.00;0.00;;;;;;;;;;1738881;28;20889;-65
2023/12/16 00:42:18;;;;;;;0.00;0.00;;;;;;;;;;1738759;28;20199;-65
2023/12/16 00:43:09;;;;;;;0.05;0.05;;;;;;;;;;1738450;28;20271;-65
2023/12/16 00:44:01;;;;;;;0.00;0.00;;;;;;;;;;1737474;28;20669;-65
2023/12/16 00:44:52;;;;;;;0.00;0.00;;;;;;;;;;1738774;28;20598;-65
2023/12/16 00:45:43;;;;;;;0.00;0.00;;;;;;;;;;1737671;28;20234;-64
2023/12/16 00:46:35;;;;;;;0.00;0.00;;;;;;;;;;1738189;28;20252;-67
2023/12/16 00:47:27;;;;;;;0.10;0.10;;;;;;;;;;1738928;28;20566;-64
2023/12/16 00:48:18;;;;;;;0.00;0.00;;;;;;;;;;1738268;28;20677;-65
2023/12/16 00:49:09;;;;;;;0.00;0.00;;;;;;;;;;1739147;28;20203;-65
2023/12/16 00:50:01;;;;;;;0.10;0.10;;;;;;;;;;1738693;28;20210;-64
2023/12/16 00:50:52;;;;;;;0.10;0.10;;;;;;;;;;1737584;28;20695;-65
2023/12/16 00:51:43;;;;;;;0.10;0.10;;;;;;;;;;1738485;28;20313;-66
2023/12/16 00:52:35;;;;;;;0.00;0.00;;;;;;;;;;1739003;28;20199;-65
2023/12/16 00:53:26;;;;;;;0.00;0.00;;;;;;;;;;1738599;28;20325;-64
2023/12/16 00:54:17;;;;;;;0.00;0.00;;;;;;;;;;1739099;28;20714;-66
2023/12/16 00:55:10;;;;;;;0.03;0.03;;;;;;;;;;1738547;28;20621;-64
2023/12/16 00:56:01;;;;;;;0.10;0.10;;;;;;;;;;1737851;28;20313;-65
2023/12/16 00:56:53;;;;;;;0.00;0.00;;;;;;;;;;1738747;28;20206;-64
2023/12/16 00:57:44;;;;;;;0.00;0.00;;;;;;;;;;1738468;28;20287;-64
2023/12/16 00:58:35;;;;;;;0.00;0.00;;;;;;;;;;1738592;28;20634;-64
2023/12/16 00:59:27;;;;;;;0.00;0.00;;;;;;;;;;1738597;28;20214;-64
2023/12/16 01:00:18;;;;;;;0.00;0.00;;;;;;;;;;1737918;28;20719;-64
2023/12/16 01:01:14;;;;;;;0.00;0.00;;;;;;;;;;1738537;28;20226;-64
2023/12/16 01:02:07;;;;;;;0.00;0.00;;;;;;;;;;1739531;28;20202;-64
2023/12/16 01:02:58;;;;;;;0.00;0.00;;;;;;;;;;1738727;28;20211;-64
2023/12/16 01:03:50;;;;;;;0.00;0.00;;;;;;;;;;1739150;28;20214;-65
2023/12/16 01:04:41;;;;;;;0.00;0.00;;;;;;;;;;1738596;28;20734;-64
2023/12/16 01:05:33;;;;;;;0.00;0.00;;;;;;;;;;1737654;28;20715;-66
2023/12/16 01:06:24;;;;;;;0.05;0.05;;;;;;;;;;1738947;28;20202;-65
2023/12/16 01:07:15;;;;;;;0.00;0.00;;;;;;;;;;1738921;28;20210;-64
2023/12/16 01:08:07;;;;;;;0.00;0.00;;;;;;;;;;1738732;28;20211;-64
2023/12/16 01:08:58;;;;;;;0.00;0.00;;;;;;;;;;1739651;28;20203;-65
2023/12/16 01:09:51;;;;;;;0.00;0.00;;;;;;;;;;1738801;28;20289;-65
2023/12/16 01:10:43;;;;;;;0.00;0.00;;;;;;;;;;1738325;28;20666;-65
2023/12/16 01:11:35;;;;;;;0.00;0.00;;;;;;;;;;1738841;28;20586;-64
2023/12/16 01:12:26;;;;;;;0.00;0.00;;;;;;;;;;1739618;28;20215;-67
2023/12/16 01:13:17;;;;;;;0.00;0.00;;;;;;;;;;1738814;28;20203;-64
2023/12/16 01:14:13;;;;;;;0.00;0.00;;;;;;;;;;1739209;28;20206;-65
2023/12/16 01:15:05;;;;;;;0.00;0.00;;;;;;;;;;1739131;28;20219;-65
2023/12/16 01:15:57;;;;;;;0.00;0.00;;;;;;;;;;1735228;28;20352;-65
2023/12/16 01:16:48;;;;;;;0.00;0.00;;;;;;;;;;1738973;28;20210;-65
2023/12/16 01:17:39;;;;;;;0.00;0.00;;;;;;;;;;1738481;28;20222;-65
2023/12/16 01:18:31;;;;;;;0.00;0.00;;;;;;;;;;1739227;28;20585;-65
2023/12/16 01:19:22;;;;;;;0.00;0.00;;;;;;;;;;1738840;28;20567;-66
2023/12/16 01:20:13;;;;;;;0.00;0.00;;;;;;;;;;1739025;28;20625;-64
2023/12/16 01:21:06;;;;;;;0.00;0.00;;;;;;;;;;1737978;28;20243;-65
2023/12/16 01:21:57;;;;;;;0.00;0.00;;;;;;;;;;1739112;28;20203;-65
2023/12/16 01:22:49;;;;;;;0.00;0.00;;;;;;;;;;1738564;28;20624;-64
2023/12/16 01:23:40;;;;;;;0.00;0.00;;;;;;;;;;1736802;28;20826;-65
2023/12/16 01:24:32;;;;;;;0.00;0.00;;;;;;;;;;1738705;28;20198;-65
2023/12/16 01:25:24;;;;;;;0.00;0.00;;;;;;;;;;1738861;28;20211;-64
2023/12/16 01:26:16;;;;;;;0.03;0.03;;;;;;;;;;1722757;28;20201;-65
2023/12/16 01:27:07;;;;;;;0.00;0.00;;;;;;;;;;1727546;28;20208;-65
2023/12/16 01:27:59;;;;;;;0.00;0.00;;;;;;;;;;1726281;28;20231;-64
2023/12/16 01:28:50;;;;;;;0.00;0.00;;;;;;;;;;1725335;28;20212;-64
2023/12/16 01:29:41;;;;;;;0.00;0.00;;;;;;;;;;1724719;28;20293;-64
2023/12/16 01:30:33;;;;;;;0.00;0.00;;;;;;;;;;1723871;28;20580;-65
2023/12/16 01:31:24;;;;;;;0.00;0.00;;;;;;;;;;1724795;28;20299;-65
2023/12/16 01:32:16;;;;;;;0.00;0.00;;;;;;;;;;1725036;28;20647;-63
2023/12/16 01:33:07;;;;;;;0.00;0.00;;;;;;;;;;1724937;28;20617;-63
2023/12/16 01:33:59;;;;;;;0.00;0.00;;;;;;;;;;1725416;28;20207;-64
2023/12/16 01:34:50;;;;;;;0.00;0.00;;;;;;;;;;1724656;28;20622;-64
2023/12/16 01:35:42;;;;;;;0.10;0.10;;;;;;;;;;1722853;28;20236;-64
2023/12/16 01:36:33;;;;;;;0.00;0.00;;;;;;;;;;1724359;28;20212;-64
2023/12/16 01:37:26;;;;;;;0.00;0.00;;;;;;;;;;1725062;28;20204;-64
2023/12/16 01:38:18;;;;;;;0.00;0.00;;;;;;;;;;1724376;28;20539;-64
2023/12/16 01:39:09;;;;;;;0.00;0.00;;;;;;;;;;1725272;28;20706;-64
2023/12/16 01:40:00;;;;;;;0.00;0.00;;;;;;;;;;1724830;28;20387;-65
2023/12/16 01:40:52;;;;;;;0.00;0.00;;;;;;;;;;1723584;28;20243;-65
2023/12/16 01:41:44;;;;;;;0.00;0.00;;;;;;;;;;1724617;28;20270;-64
2023/12/16 01:42:35;;;;;;;0.00;0.00;;;;;;;;;;1724840;28;20658;-65
2023/12/16 01:43:27;;;;;;;0.00;0.00;;;;;;;;;;1724655;28;20209;-64
2023/12/16 01:44:18;;;;;;;0.00;0.00;;;;;;;;;;1725079;28;20262;-67
2023/12/16 01:45:09;;;;;;;0.00;0.00;;;;;;;;;;1724750;28;20214;-65
2023/12/16 01:46:03;;;;;;;0.05;0.05;;;;;;;;;;1723792;28;20240;-64
2023/12/16 01:46:54;;;;;;;0.00;0.00;;;;;;;;;;1724700;28;20208;-64
2023/12/16 01:47:45;;;;;;;0.00;0.00;;;;;;;;;;1724182;28;20228;-64
2023/12/16 01:48:37;;;;;;;0.00;0.00;;;;;;;;;;1724717;28;20255;-64
2023/12/16 01:49:28;;;;;;;0.00;0.00;;;;;;;;;;1724746;28;20366;-64
2023/12/16 01:50:19;;;;;;;0.00;0.00;;;;;;;;;;1723829;28;20691;-64
2023/12/16 01:51:11;;;;;;;0.00;0.00;;;;;;;;;;1724370;28;20491;-64
2023/12/16 01:52:02;;;;;;;0.00;0.00;;;;;;;;;;1725275;28;20912;-65
2023/12/16 01:52:54;;;;;;;0.00;0.00;;;;;;;;;;1724288;28;20299;-64
2023/12/16 01:53:46;;;;;;;0.00;0.00;;;;;;;;;;1725042;28;20319;-65
2023/12/16 01:54:39;;;;;;;0.00;0.00;;;;;;;;;;1724501;28;20219;-65
2023/12/16 01:55:30;;;;;;;0.03;0.03;;;;;;;;;;1722092;28;20291;-65
2023/12/16 01:56:22;;;;;;;0.00;0.00;;;;;;;;;;1724348;28;20204;-65
2023/12/16 01:57:15;;;;;;;0.00;0.00;;;;;;;;;;1724570;28;20975;-64
2023/12/16 01:58:06;;;;;;;0.00;0.00;;;;;;;;;;1724585;28;20303;-65
2023/12/16 01:58:58;;;;;;;0.00;0.00;;;;;;;;;;1724918;28;20208;-65
2023/12/16 01:59:49;;;;;;;0.00;0.00;;;;;;;;;;1724399;28;20313;-65
2023/12/16 02:00:42;;;;;;;0.00;0.00;;;;;;;;;;1723680;28;20282;-66
2023/12/16 02:01:34;;;;;;;0.00;0.00;;;;;;;;;;1724329;28;20635;-65
2023/12/16 02:02:26;;;;;;;0.00;0.00;;;;;;;;;;1724834;28;20223;-64
2023/12/16 02:03:19;;;;;;;0.00;0.00;;;;;;;;;;1724257;28;20231;-65
2023/12/16 02:04:11;;;;;;;0.10;0.10;;;;;;;;;;1724782;28;20250;-65
2023/12/16 02:05:02;;;;;;;0.00;0.00;;;;;;;;;;1724669;28;20262;-65
2023/12/16 02:05:55;;;;;;;0.00;0.00;;;;;;;;;;1722672;28;20236;-65
2023/12/16 02:06:46;;;;;;;0.00;0.00;;;;;;;;;;1721310;28;20627;-65
2023/12/16 02:07:37;;;;;;;0.10;0.10;;;;;;;;;;1722361;28;20220;-64
2023/12/16 02:08:29;;;;;;;0.00;0.00;;;;;;;;;;1719633;28;20204;-66
2023/12/16 02:09:21;;;;;;;0.00;0.00;;;;;;;;;;1724703;28;20290;-66
2023/12/16 02:10:13;;;;;;;0.00;0.00;;;;;;;;;;1724524;28;20204;-64
2023/12/16 02:11:09;;;;;;;0.00;0.00;;;;;;;;;;1723557;28;20236;-65
2023/12/16 02:12:01;;;;;;;0.10;0.10;;;;;;;;;;1723254;28;20789;-65
2023/12/16 02:12:53;;;;;;;0.00;0.00;;;;;;;;;;1724384;28;20219;-65
2023/12/16 02:13:45;;;;;;;0.03;0.03;;;;;;;;;;1724825;28;20256;-65
2023/12/16 02:14:36;;;;;;;0.00;0.00;;;;;;;;;;1724437;28;20278;-64
2023/12/16 02:15:28;;;;;;;0.00;0.00;;;;;;;;;;1723653;28;20204;-65
2023/12/16 02:16:19;;;;;;;0.00;0.00;;;;;;;;;;1724135;28;20269;-65
2023/12/16 02:17:11;;;;;;;0.00;0.00;;;;;;;;;;1724704;28;20208;-64
2023/12/16 02:18:02;;;;;;;0.03;0.03;;;;;;;;;;1723912;28;20638;-67
2023/12/16 02:18:53;;;;;;;0.00;0.00;;;;;;;;;;1724714;28;20207;-66
2023/12/16 02:19:46;;;;;;;0.00;0.00;;;;;;;;;;1724074;28;20204;-64
2023/12/16 02:20:37;;;;;;;0.00;0.00;;;;;;;;;;1723589;28;20261;-66
2023/12/16 02:21:29;;;;;;;0.00;0.00;;;;;;;;;;1724430;28;20675;-65
2023/12/16 02:22:20;;;;;;;0.00;0.00;;;;;;;;;;1724687;28;20327;-65
2023/12/16 02:23:16;;;;;;;0.00;0.00;;;;;;;;;;1724257;28;20295;-62
2023/12/16 02:24:07;;;;;;;0.10;0.10;;;;;;;;;;1725101;28;20481;-65
2023/12/16 02:24:58;;;;;;;0.00;0.00;;;;;;;;;;1724185;28;20200;-65
2023/12/16 02:25:50;;;;;;;0.00;0.00;;;;;;;;;;1725568;28;21203;-65
2023/12/16 02:26:41;;;;;;;0.00;0.00;;;;;;;;;;1736783;28;20291;-65
2023/12/16 02:27:32;;;;;;;0.00;0.00;;;;;;;;;;1738108;28;20264;-64
2023/12/16 02:28:24;;;;;;;0.10;0.10;;;;;;;;;;1737746;28;20207;-65
2023/12/16 02:29:15;;;;;;;0.00;0.00;;;;;;;;;;1732383;28;20216;-65
2023/12/16 02:30:07;;;;;;;0.00;0.00;;;;;;;;;;1738323;28;20937;-65
2023/12/16 02:30:59;;;;;;;0.00;0.00;;;;;;;;;;1736839;28;20223;-67
2023/12/16 02:31:50;;;;;;;0.00;0.00;;;;;;;;;;1737927;28;20206;-65
2023/12/16 02:32:42;;;;;;;0.00;0.00;;;;;;;;;;1737568;28;20198;-67
2023/12/16 02:33:33;;;;;;;0.00;0.00;;;;;;;;;;1738324;28;20203;-65
2023/12/16 02:34:25;;;;;;;0.05;0.05;;;;;;;;;;1737686;28;20203;-64
2023/12/16 02:35:17;;;;;;;0.00;0.00;;;;;;;;;;1737108;28;20692;-65
2023/12/16 02:36:08;;;;;;;0.00;0.00;;;;;;;;;;1738500;28;20202;-65
2023/12/16 02:37:05;;;;;;;0.00;0.00;;;;;;;;;;1738000;28;20233;-65
2023/12/16 02:37:57;;;;;;;0.00;0.00;;;;;;;;;;1737889;28;20222;-64
2023/12/16 02:38:50;;;;;;;0.00;0.00;;;;;;;;;;1738152;28;20218;-64
2023/12/16 02:39:41;;;;;;;0.00;0.00;;;;;;;;;;1737893;28;20211;-65
2023/12/16 02:40:38;;;;;;;0.00;0.00;;;;;;;;;;1737133;28;20880;-64
2023/12/16 02:41:29;;;;;;;0.00;0.00;;;;;;;;;;1737670;28;20230;-64
2023/12/16 02:42:20;;;;;;;0.00;0.00;;;;;;;;;;1738258;28;20286;-65
2023/12/16 02:43:12;;;;;;;0.00;0.00;;;;;;;;;;1737999;28;20211;-64
2023/12/16 02:44:03;;;;;;;0.00;0.00;;;;;;;;;;1738075;28;20210;-64
2023/12/16 02:44:55;;;;;;;0.00;0.00;;;;;;;;;;1737695;28;20209;-64
2023/12/16 02:45:46;;;;;;;0.10;0.10;;;;;;;;;;1736831;28;20709;-65
2023/12/16 02:46:38;;;;;;;0.00;0.00;;;;;;;;;;1737915;28;20302;-65
2023/12/16 02:47:30;;;;;;;0.00;0.00;;;;;;;;;;1737890;28;20666;-64
2023/12/16 02:48:20;;;;;;;0.00;0.00;;;;;;;;;;1737844;28;20207;-64
2023/12/16 02:49:12;;;;;;;0.00;0.00;;;;;;;;;;1738365;28;20256;-65
2023/12/16 02:50:06;;;;;;;0.10;0.10;;;;;;;;;;1738080;28;20577;-64
2023/12/16 02:50:57;;;;;;;0.00;0.00;;;;;;;;;;1737050;28;20242;-65
2023/12/16 02:51:48;;;;;;;0.00;0.00;;;;;;;;;;1737651;28;20674;-65
2023/12/16 02:52:40;;;;;;;0.00;0.00;;;;;;;;;;1738182;28;20203;-65
2023/12/16 02:53:31;;;;;;;0.10;0.10;;;;;;;;;;1737750;28;20318;-65
2023/12/16 02:54:23;;;;;;;0.00;0.00;;;;;;;;;;1738080;28;20654;-65
2023/12/16 02:55:17;;;;;;;0.10;0.10;;;;;;;;;;1736217;28;20746;-65
2023/12/16 02:56:08;;;;;;;0.00;0.00;;;;;;;;;;1738258;28;20686;-64
2023/12/16 02:56:59;;;;;;;0.00;0.00;;;;;;;;;;1737829;28;20203;-65
2023/12/16 02:57:51;;;;;;;0.10;0.10;;;;;;;;;;1737120;28;20223;-65
2023/12/16 02:58:43;;;;;;;0.00;0.00;;;;;;;;;;1738092;28;20215;-65
2023/12/16 02:59:40;;;;;;;0.00;0.00;;;;;;;;;;1737525;28;20206;-65
2023/12/16 03:00:32;;;;;;;0.00;0.00;;;;;;;;;;1736795;28;20249;-65
2023/12/16 03:01:23;;;;;;;0.00;0.00;;;;;;;;;;1737639;28;20226;-65
2023/12/16 03:02:14;;;;;;;0.00;0.00;;;;;;;;;;1736249;28;20665;-64
2023/12/16 03:03:06;;;;;;;0.00;0.00;;;;;;;;;;1738225;28;20652;-65
2023/12/16 03:03:57;;;;;;;0.00;0.00;;;;;;;;;;1737929;28;20211;-65
2023/12/16 03:04:48;;;;;;;0.00;0.00;;;;;;;;;;1737416;28;20199;-65
2023/12/16 03:05:40;;;;;;;0.00;0.00;;;;;;;;;;1736899;28;20276;-65
2023/12/16 03:06:31;;;;;;;0.00;0.00;;;;;;;;;;1737470;28;20210;-66
2023/12/16 03:07:23;;;;;;;0.00;0.00;;;;;;;;;;1738270;28;20206;-64
2023/12/16 03:08:15;;;;;;;0.00;0.00;;;;;;;;;;1737743;28;20206;-66
2023/12/16 03:09:06;;;;;;;0.00;0.00;;;;;;;;;;1738292;28;20219;-65
2023/12/16 03:09:58;;;;;;;0.00;0.00;;;;;;;;;;1737515;28;20233;-66
2023/12/16 03:10:50;;;;;;;0.00;0.00;;;;;;;;;;1737228;28;20261;-65
2023/12/16 03:11:41;;;;;;;0.00;0.00;;;;;;;;;;1737622;28;20207;-65
2023/12/16 03:12:33;;;;;;;0.00;0.00;;;;;;;;;;1737977;28;20696;-65
2023/12/16 03:13:24;;;;;;;0.00;0.00;;;;;;;;;;1737605;28;20540;-65
2023/12/16 03:14:15;;;;;;;0.00;0.00;;;;;;;;;;1731500;28;20492;-63
2023/12/16 03:15:08;;;;;;;0.10;0.10;;;;;;;;;;1738038;28;20703;-65
2023/12/16 03:15:59;;;;;;;0.00;0.00;;;;;;;;;;1735267;28;20254;-65
2023/12/16 03:16:50;;;;;;;0.00;0.00;;;;;;;;;;1737783;28;20199;-65
2023/12/16 03:17:43;;;;;;;0.00;0.00;;;;;;;;;;1737262;28;20330;-65
2023/12/16 03:18:34;;;;;;;0.00;0.00;;;;;;;;;;1737874;28;20199;-65
2023/12/16 03:19:27;;;;;;;0.00;0.00;;;;;;;;;;1737830;28;20209;-65
2023/12/16 03:20:20;;;;;;;0.00;0.00;;;;;;;;;;1736589;28;20597;-65
2023/12/16 03:21:11;;;;;;;0.00;0.00;;;;;;;;;;1737841;28;20297;-65
2023/12/16 03:22:02;;;;;;;0.00;0.00;;;;;;;;;;1738209;28;20215;-65
2023/12/16 03:22:54;;;;;;;0.00;0.00;;;;;;;;;;1737437;28;20214;-64
2023/12/16 03:23:45;;;;;;;0.00;0.00;;;;;;;;;;1738001;28;20294;-65
2023/12/16 03:24:36;;;;;;;0.00;0.00;;;;;;;;;;1737451;28;20218;-65
2023/12/16 03:25:29;;;;;;;0.00;0.00;;;;;;;;;;1736797;28;20288;-64
2023/12/16 03:26:20;;;;;;;0.00;0.00;;;;;;;;;;1736919;28;20230;-65
2023/12/16 03:27:12;;;;;;;0.00;0.00;;;;;;;;;;1738463;28;20210;-65
2023/12/16 03:28:03;;;;;;;0.00;0.00;;;;;;;;;;1737536;28;22000;-65
2023/12/16 03:28:54;;;;;;;0.00;0.00;;;;;;;;;;1737798;28;20199;-66
2023/12/16 03:29:46;;;;;;;0.00;0.00;;;;;;;;;;1737597;28;20203;-66
2023/12/16 03:30:38;;;;;;;0.00;0.00;;;;;;;;;;1736984;28;20708;-65
2023/12/16 03:31:29;;;;;;;0.00;0.00;;;;;;;;;;1737450;28;20199;-66
2023/12/16 03:32:21;;;;;;;0.00;0.00;;;;;;;;;;1738042;28;20692;-65
2023/12/16 03:33:12;;;;;;;0.00;0.00;;;;;;;;;;1737768;28;20288;-65
2023/12/16 03:34:03;;;;;;;0.00;0.00;;;;;;;;;;1738140;28;20563;-65
2023/12/16 03:34:55;;;;;;;0.00;0.00;;;;;;;;;;1737184;28;20228;-65
2023/12/16 03:35:46;;;;;;;0.00;0.00;;;;;;;;;;1736877;28;20238;-65
2023/12/16 03:36:37;;;;;;;0.00;0.00;;;;;;;;;;1737639;28;20219;-65
2023/12/16 03:37:29;;;;;;;0.00;0.00;;;;;;;;;;1739339;28;20250;-65
2023/12/16 03:38:20;;;;;;;0.00;0.00;;;;;;;;;;1739091;28;20796;-65
2023/12/16 03:39:12;;;;;;;0.00;0.00;;;;;;;;;;1739705;28;20616;-65
2023/12/16 03:40:03;;;;;;;0.10;0.10;;;;;;;;;;1738706;28;20297;-66
2023/12/16 03:40:56;;;;;;;0.05;0.05;;;;;;;;;;1736732;28;20361;-65
2023/12/16 03:41:48;;;;;;;0.00;0.00;;;;;;;;;;1737681;28;20276;-65
2023/12/16 03:42:39;;;;;;;0.00;0.00;;;;;;;;;;1739043;28;20260;-65
2023/12/16 03:43:30;;;;;;;0.00;0.00;;;;;;;;;;1739254;28;20190;-65
2023/12/16 03:44:22;;;;;;;0.00;0.00;;;;;;;;;;1739434;28;20226;-65
2023/12/16 03:45:13;;;;;;;0.00;0.00;;;;;;;;;;1739055;28;20222;-65
2023/12/16 03:46:04;;;;;;;0.00;0.00;;;;;;;;;;1738313;28;20261;-66
2023/12/16 03:46:56;;;;;;;0.00;0.00;;;;;;;;;;1739311;28;20206;-65
2023/12/16 03:47:47;;;;;;;0.00;0.00;;;;;;;;;;1736013;28;20227;-66
2023/12/16 03:48:39;;;;;;;0.00;0.00;;;;;;;;;;1738219;28;20208;-64
2023/12/16 03:49:30;;;;;;;0.00;0.00;;;;;;;;;;1738734;28;20632;-65
2023/12/16 03:50:21;;;;;;;0.00;0.00;;;;;;;;;;1738151;28;20293;-64
2023/12/16 03:51:13;;;;;;;0.00;0.00;;;;;;;;;;1739414;28;20211;-65
2023/12/16 03:52:05;;;;;;;0.00;0.00;;;;;;;;;;1739263;28;20210;-65
2023/12/16 03:52:56;;;;;;;0.08;0.08;;;;;;;;;;1738937;28;20199;-65
2023/12/16 03:53:48;;;;;;;0.00;0.00;;;;;;;;;;1739210;28;20203;-65
2023/12/16 03:54:40;;;;;;;0.03;0.03;;;;;;;;;;1739216;28;20832;-64
2023/12/16 03:55:32;;;;;;;0.00;0.00;;;;;;;;;;1737996;28;20195;-65
2023/12/16 03:56:24;;;;;;;0.00;0.00;;;;;;;;;;1738669;28;20623;-65
2023/12/16 03:57:16;;;;;;;0.00;0.00;;;;;;;;;;1738129;28;20202;-64
2023/12/16 03:58:07;;;;;;;0.00;0.00;;;;;;;;;;1738683;28;20211;-64
2023/12/16 03:58:58;;;;;;;0.00;0.00;;;;;;;;;;1739619;28;20209;-65
2023/12/16 03:59:50;;;;;;;0.10;0.10;;;;;;;;;;1738921;28;20234;-65
2023/12/16 04:00:41;;;;;;;0.00;0.00;;;;;;;;;;1738453;28;20647;-65
2023/12/16 04:01:33;;;;;;;0.00;0.00;;;;;;;;;;1739613;28;20316;-64
2023/12/16 04:02:24;;;;;;;0.00;0.00;;;;;;;;;;1740060;28;20256;-65
2023/12/16 04:03:15;;;;;;;0.00;0.00;;;;;;;;;;1738557;28;20203;-65
2023/12/16 04:04:07;;;;;;;0.00;0.00;;;;;;;;;;1740271;28;20698;-65
2023/12/16 04:04:59;;;;;;;0.00;0.00;;;;;;;;;;1739192;28;20261;-65
2023/12/16 04:05:50;;;;;;;0.00;0.00;;;;;;;;;;1738422;28;20227;-65
2023/12/16 04:06:45;;;;;;;0.00;0.00;;;;;;;;;;1738786;28;20207;-65
2023/12/16 04:07:36;;;;;;;0.00;0.00;;;;;;;;;;1739538;28;20419;-65
2023/12/16 04:08:27;;;;;;;0.00;0.00;;;;;;;;;;1739122;28;20202;-65
2023/12/16 04:09:19;;;;;;;0.00;0.00;;;;;;;;;;1740185;28;20282;-65
2023/12/16 04:10:10;;;;;;;0.00;0.00;;;;;;;;;;1739609;28;20632;-65
2023/12/16 04:11:01;;;;;;;0.00;0.00;;;;;;;;;;1737934;28;20230;-64
2023/12/16 04:11:55;;;;;;;0.00;0.00;;;;;;;;;;1739537;28;20230;-64
2023/12/16 04:12:46;;;;;;;0.10;0.10;;;;;;;;;;1738907;28;20215;-65
2023/12/16 04:13:37;;;;;;;0.00;0.00;;;;;;;;;;1739614;28;20245;-66
2023/12/16 04:14:29;;;;;;;0.00;0.00;;;;;;;;;;1738879;28;20210;-65
2023/12/16 04:15:20;;;;;;;0.10;0.10;;;;;;;;;;1739403;28;20207;-65
2023/12/16 04:16:11;;;;;;;0.00;0.00;;;;;;;;;;1736459;28;20600;-65
2023/12/16 04:17:03;;;;;;;0.00;0.00;;;;;;;;;;1739257;28;20215;-65
2023/12/16 04:17:54;;;;;;;0.00;0.00;;;;;;;;;;1738331;28;20230;-65
2023/12/16 04:18:46;;;;;;;0.00;0.00;;;;;;;;;;1739198;28;20230;-65
2023/12/16 04:19:37;;;;;;;0.00;0.00;;;;;;;;;;1738891;28;20207;-65
2023/12/16 04:20:30;;;;;;;0.00;0.00;;;;;;;;;;1736030;28;20261;-65
2023/12/16 04:21:21;;;;;;;0.00;0.00;;;;;;;;;;1738756;28;20863;-66
2023/12/16 04:22:12;;;;;;;0.00;0.00;;;;;;;;;;1739674;28;20215;-65
2023/12/16 04:23:04;;;;;;;0.00;0.00;;;;;;;;;;1738523;28;20219;-65
2023/12/16 04:23:55;;;;;;;0.00;0.00;;;;;;;;;;1739236;28;20215;-64
2023/12/16 04:24:46;;;;;;;0.00;0.00;;;;;;;;;;1738653;28;20203;-65
2023/12/16 04:25:38;;;;;;;0.03;0.03;;;;;;;;;;1735255;28;20233;-65
2023/12/16 04:26:29;;;;;;;0.00;0.00;;;;;;;;;;1738460;28;20710;-64
2023/12/16 04:27:22;;;;;;;0.00;0.00;;;;;;;;;;1738686;28;20657;-64
2023/12/16 04:28:14;;;;;;;0.00;0.00;;;;;;;;;;1738915;28;20652;-64
2023/12/16 04:29:05;;;;;;;0.00;0.00;;;;;;;;;;1738783;28;20712;-65
2023/12/16 04:29:57;;;;;;;0.00;0.00;;;;;;;;;;1738536;28;20329;-65
2023/12/16 04:30:48;;;;;;;0.00;0.00;;;;;;;;;;1735923;28;20230;-65
2023/12/16 04:31:39;;;;;;;0.00;0.00;;;;;;;;;;1738248;28;20687;-65
2023/12/16 04:32:31;;;;;;;0.00;0.00;;;;;;;;;;1739010;28;20674;-65
2023/12/16 04:33:22;;;;;;;0.00;0.00;;;;;;;;;;1738316;28;20214;-65
2023/12/16 04:34:13;;;;;;;0.00;0.00;;;;;;;;;;1739290;28;20217;-64
2023/12/16 04:35:05;;;;;;;0.00;0.00;;;;;;;;;;1738532;28;20214;-65
2023/12/16 04:35:56;;;;;;;0.00;0.00;;;;;;;;;;1735614;28;20365;-65
2023/12/16 04:36:48;;;;;;;0.00;0.00;;;;;;;;;;1738525;28;20214;-65
2023/12/16 04:37:39;;;;;;;0.00;0.00;;;;;;;;;;1738471;28;20268;-65
2023/12/16 04:38:30;;;;;;;0.00;0.00;;;;;;;;;;1738930;28;20708;-65
2023/12/16 04:39:23;;;;;;;0.00;0.00;;;;;;;;;;1739021;28;20289;-65
2023/12/16 04:40:14;;;;;;;0.00;0.00;;;;;;;;;;1739363;28;20234;-66
2023/12/16 04:41:05;;;;;;;0.00;0.00;;;;;;;;;;1735492;28;20685;-65
2023/12/16 04:41:57;;;;;;;0.00;0.00;;;;;;;;;;1738492;28;20322;-65
2023/12/16 04:42:49;;;;;;;0.10;0.10;;;;;;;;;;1738785;28;20759;-65
2023/12/16 04:43:41;;;;;;;0.00;0.00;;;;;;;;;;1735445;28;20271;-65
2023/12/16 04:44:33;;;;;;;0.00;0.00;;;;;;;;;;1738747;28;20683;-66
2023/12/16 04:45:24;;;;;;;0.00;0.00;;;;;;;;;;1737926;28;20272;-64
2023/12/16 04:46:19;;;;;;;0.00;0.00;;;;;;;;;;1734370;28;20199;-65
2023/12/16 04:47:10;;;;;;;0.00;0.00;;;;;;;;;;1739270;28;20214;-65
2023/12/16 04:48:02;;;;;;;0.00;0.00;;;;;;;;;;1737861;28;20234;-65
2023/12/16 04:48:54;;;;;;;0.00;0.00;;;;;;;;;;1738263;28;20256;-64
2023/12/16 04:49:45;;;;;;;0.00;0.00;;;;;;;;;;1738704;28;20709;-64
2023/12/16 04:50:37;;;;;;;0.00;0.00;;;;;;;;;;1737558;28;20632;-63
2023/12/16 04:51:28;;;;;;;0.00;0.00;;;;;;;;;;1738640;28;20237;-64
2023/12/16 04:52:20;;;;;;;0.10;0.10;;;;;;;;;;1739386;28;20233;-64
2023/12/16 04:53:11;;;;;;;0.00;0.00;;;;;;;;;;1738611;28;20337;-64
2023/12/16 04:54:03;;;;;;;0.00;0.00;;;;;;;;;;1738907;28;20219;-64
2023/12/16 04:54:54;;;;;;;0.00;0.00;;;;;;;;;;1738586;28;20211;-63
2023/12/16 04:55:45;;;;;;;0.00;0.00;;;;;;;;;;1737661;28;20234;-64
2023/12/16 04:56:37;;;;;;;0.00;0.00;;;;;;;;;;1738543;28;20206;-64
2023/12/16 04:57:28;;;;;;;0.00;0.00;;;;;;;;;;1738824;28;20211;-64
2023/12/16 04:58:20;;;;;;;0.00;0.00;;;;;;;;;;1738723;28;20211;-64
2023/12/16 04:59:12;;;;;;;0.00;0.00;;;;;;;;;;1739236;28;20237;-64
2023/12/16 05:00:04;;;;;;;0.00;0.00;;;;;;;;;;1738483;28;20206;-64
2023/12/16 05:00:55;;;;;;;0.00;0.00;;;;;;;;;;1737114;28;20219;-64
2023/12/16 05:01:47;;;;;;;0.08;0.08;;;;;;;;;;1738339;28;20238;-63
2023/12/16 05:02:38;;;;;;;0.00;0.00;;;;;;;;;;1738588;28;20199;-64
2023/12/16 05:03:30;;;;;;;0.00;0.00;;;;;;;;;;1738825;28;20207;-64
2023/12/16 05:04:22;;;;;;;0.00;0.00;;;;;;;;;;1738831;28;20206;-64
2023/12/16 05:05:13;;;;;;;0.00;0.00;;;;;;;;;;1737734;28;20587;-64
2023/12/16 05:06:06;;;;;;;0.00;0.00;;;;;;;;;;1737359;28;20349;-65
2023/12/16 05:06:58;;;;;;;0.03;0.03;;;;;;;;;;1738554;28;20203;-65
2023/12/16 05:07:49;;;;;;;0.00;0.00;;;;;;;;;;1738464;28;20231;-65
2023/12/16 05:08:40;;;;;;;0.00;0.00;;;;;;;;;;1738824;28;20199;-63
2023/12/16 05:09:32;;;;;;;0.00;0.00;;;;;;;;;;1738696;28;20199;-65